Skip Navigation Links
NOAA logo - Click to go to the NOAA homepage
NOAA's National Weather Service
Alaska Aviation Weather Unit
  NWS logo - Click to go to the NWS homepage
Left Navbar Graphic     15 AKDT = 23 GMT

   
NOAA is celebrating 200 years of science, service, and stewardship. Visit the NOAA 200th celebration Web site to learn more.
USA.gov is the U.S. Government's official Web portal to all Federal, state and local government Web resources and services.
Facebook
NWS on Facebook

Important Change Regarding the AAWU Web Presence

 

Over the last several months, the AAWU has been working to navigate its webpages to a nationally supported server. Security, as well as other needs, have necessitated the change.  We have been given an extension for the site changeover while we diligently work at addressing feedback received. As of July 14, 2017, aawu.arh.noaa.gov will be discontinued. The new AAWU web address is weather.gov/aawu. It is now live and will run in-parallel with the old site until it is discontinued on July 14, 2017. Please continue to send any feedback or questions regarding the new webpages to nws.ar.aawu.webauthors@noaa.gov.  Thank you for your patience during this time of transition.
AAWU Home :: Display TAF Add Bookmark
TAF PASD 192329Z 2000/2024  36010KT P6SM VCSH SCT025 BKN050
     FM200400 VRB06KT P6SM FEW050
     FM201600 05008KT P6SM -RA BKN035 OVC050
     FM202100 03008KT P6SM -RA BKN025 OVC035
      AMD LTD TO CLD VIS AND WIND=

8263
FTAK31 PANC 192329
TAFASN
TAF
METAR PASD 191756Z 33007KT 10SM FEW029 SCT070 03/M02 A2974 RMK AO2
 RAB33E44 SLP072 DA P0000 60000 T00281017 10039 20022 55010=

METAR PASD 191956Z 32013KT 10SM SCT037 SCT090 04/M02 A2970 RMK AO2
 SLP061 DA T00441017=

PASD 192056Z 34011G18KT 10SM FEW035 SCT090 04/M03 A2968 RMK
     (DA)=

METAR PASD 192156Z 32010KT 10SM SCT036 BKN090 05/M01 A2967 RMK AO2
     SLP050 DA T00501011=

SPECI PASD 192210Z 32009KT 10SM SCT032 BKN050 04/M01 A2967 RMK AO2
 AE=

PASD 192252Z 35011KT 10SM SCT032 BKN050 04/M01 A2964 RMK AO2
     AE=

METAR PASD 192256Z 36011KT 10SM SCT032 BKN050 05/M01 A2964 RMK AO2
 SLP040 AE T00501011=


NOAA's National Weather Service
Alaska Aviation Weather Unit
6930 Sand Lake Road
Anchorage, AK 99502-1845
Disclaimer
Credits
Glossary
Privacy Policy
About Us
Career Opportunities
Contact AAWU Internet Services Site last modified: April, 17th 2012